Time;durP1;ratioP1;P1;durP2;ratioP2;P2;SDS_P1;SDS_P2;PMS_P1;PMS_P2;Temp;Humidity;BMP_temperature;BMP_pressure;BME280_temperature;BME280_humidity;BME280_pressure;Samples;Min_cycle;Max_cycle;Signal;HPM_P1;HPM_P2
2023/11/13 00:02:40;;;;;;;27.15;12.65;;;;;;;10.40;100.00;98654.47;6291393;22;20022;-94
2023/11/13 00:11:53;;;;;;;27.48;13.18;;;;;;;10.50;100.00;98615.22;6345723;22;20014;-94
2023/11/13 00:21:21;;;;;;;32.28;11.95;;;;;;;10.53;100.00;98607.13;6353832;22;20017;-95
2023/11/13 00:24:08;;;;;;;34.40;11.70;;;;;;;11.39;100.00;98744.72;6354735;22;20021;-96
2023/11/13 00:27:03;;;;;;;31.77;12.55;;;;;;;10.44;100.00;98597.66;6353149;22;20014;-96
2023/11/13 00:29:37;;;;;;;74.40;14.07;;;;;;;10.32;100.00;98611.28;6355153;22;20025;-93
2023/11/13 00:32:37;;;;;;;34.50;13.55;;;;;;;9.87;100.00;98577.97;6354569;22;20032;-95
2023/11/13 00:35:18;;;;;;;51.20;13.75;;;;;;;10.13;100.00;98564.84;6353556;22;19999;-94
2023/11/13 00:38:13;;;;;;;28.23;11.90;;;;;;;10.39;100.00;98607.56;6356303;22;20018;-94
2023/11/13 00:40:58;;;;;;;38.33;13.10;;;;;;;10.53;100.00;98616.91;6354970;22;20324;-94
2023/11/13 00:43:47;;;;;;;53.53;12.38;;;;;;;10.53;100.00;98664.78;6354461;22;20011;-94
2023/11/13 00:46:26;;;;;;;58.75;11.15;;;;;;;10.35;100.00;98605.91;6353591;22;20364;-94
2023/11/13 00:49:14;;;;;;;89.70;12.02;;;;;;;10.29;100.00;98600.75;6353917;22;20101;-95
2023/11/13 00:52:09;;;;;;;33.05;12.45;;;;;;;10.65;100.00;98641.34;6354714;22;20018;-95
2023/11/13 00:54:47;;;;;;;37.15;13.57;;;;;;;10.47;100.00;98578.06;6354222;22;20022;-94
2023/11/13 00:57:18;;;;;;;32.40;11.65;;;;;;;10.23;100.00;98580.50;6351317;22;20057;-95
2023/11/13 01:00:03;;;;;;;89.70;13.45;;;;;;;10.82;100.00;98690.50;6325316;22;20075;-95
2023/11/13 01:02:45;;;;;;;45.97;12.55;;;;;;;10.30;100.00;98577.69;6321554;22;20021;-94
2023/11/13 01:05:33;;;;;;;;;;;;;;;;;;;;;
2023/11/13 01:11:42;;;;;;;110.78;16.08;;;;;;;10.16;100.00;98600.19;6290447;22;20015;-95
2023/11/13 01:14:30;;;;;;;33.53;12.77;;;;;;;9.93;100.00;98606.16;6316622;22;20015;-94
2023/11/13 01:17:27;;;;;;;29.00;9.88;;;;;;;10.47;100.00;98650.75;6291539;22;20419;-95
2023/11/13 01:22:45;;;;;;;;;;;;;;;;;;;;;
2023/11/13 01:25:35;;;;;;;32.15;12.82;;;;;;;10.83;100.00;98749.00;6293103;22;20059;-93
2023/11/13 01:28:23;;;;;;;24.65;12.45;;;;;;;10.25;100.00;98607.03;6293890;22;20078;-91
2023/11/13 01:31:07;;;;;;;27.02;11.68;;;;;;;10.26;100.00;98593.72;6293103;22;20103;-94
2023/11/13 01:33:50;;;;;;;35.05;13.85;;;;;;;10.51;100.00;98664.81;6223777;23;20148;-95
2023/11/13 01:36:54;;;;;;;28.17;11.63;;;;;;;10.40;100.00;98611.94;6227535;22;20359;-94
2023/11/13 01:39:34;;;;;;;31.63;14.40;;;;;;;11.03;100.00;98720.94;6203265;22;20024;-94
2023/11/13 01:42:26;;;;;;;39.22;12.60;;;;;;;10.39;100.00;98618.19;6202862;22;20059;-94
2023/11/13 01:45:11;;;;;;;31.60;15.38;;;;;;;10.59;100.00;98640.66;6202833;23;20028;-95
2023/11/13 01:48:08;;;;;;;35.15;14.88;;;;;;;10.44;100.00;98700.47;6200921;23;20136;-94
2023/11/13 01:50:59;;;;;;;37.67;15.20;;;;;;;11.05;100.00;98757.22;6229117;23;20021;-93
2023/11/13 01:53:39;;;;;;;33.20;15.20;;;;;;;10.31;100.00;98630.81;6228919;23;20040;-94
2023/11/13 01:56:21;;;;;;;30.33;14.82;;;;;;;10.34;100.00;98616.56;6203210;23;20020;-95
2023/11/13 01:59:04;;;;;;;32.08;14.45;;;;;;;11.14;100.00;98721.47;6203417;23;20021;-94
2023/11/13 02:01:51;;;;;;;39.35;14.48;;;;;;;10.53;100.00;98609.81;6201249;23;20066;-96
2023/11/13 02:04:36;;;;;;;35.72;15.90;;;;;;;11.37;100.00;98747.41;6239421;22;20019;-94
2023/11/13 02:07:20;;;;;;;32.00;14.13;;;;;;;10.62;100.00;98629.94;6262656;22;19999;-93
2023/11/13 02:09:58;;;;;;;35.47;15.70;;;;;;;11.04;100.00;98744.00;6292189;22;20002;-94
2023/11/13 02:12:50;;;;;;;32.83;14.30;;;;;;;10.83;100.00;98687.81;6291906;22;20033;-93
2023/11/13 02:15:22;;;;;;;31.83;12.75;;;;;;;11.08;100.00;98726.97;6290939;22;20038;-93
2023/11/13 02:18:04;;;;;;;35.97;14.68;;;;;;;11.39;100.00;98764.22;6289769;22;20534;-94
2023/11/13 02:20:36;;;;;;;35.63;14.45;;;;;;;10.52;100.00;98604.53;6289824;22;20436;-93
2023/11/13 02:23:10;;;;;;;29.58;14.15;;;;;;;11.18;100.00;98677.03;6291229;22;20065;-94
2023/11/13 02:25:49;;;;;;;34.65;14.32;;;;;;;10.80;100.00;98608.13;6291363;22;20019;-95
2023/11/13 02:28:30;;;;;;;30.98;14.35;;;;;;;10.87;100.00;98595.50;6290796;22;20026;-93
2023/11/13 02:31:11;;;;;;;32.22;14.50;;;;;;;10.83;100.00;98616.00;6291596;22;20431;-93
2023/11/13 02:33:51;;;;;;;31.77;14.15;;;;;;;10.82;100.00;98597.41;6290103;22;20038;-95
2023/11/13 02:36:26;;;;;;;32.95;15.60;;;;;;;11.31;100.00;98695.22;6289646;22;20080;-95
2023/11/13 02:39:06;;;;;;;36.92;13.93;;;;;;;11.82;100.00;98757.53;6289101;22;20051;-94
2023/11/13 02:41:37;;;;;;;29.48;12.85;;;;;;;10.79;100.00;98606.34;6290537;22;20341;-94
2023/11/13 02:44:13;;;;;;;28.83;14.30;;;;;;;10.98;100.00;98635.06;6290455;22;20025;-94
2023/11/13 02:46:58;;;;;;;32.47;14.65;;;;;;;10.66;100.00;98583.72;6314611;22;20456;-93
2023/11/13 02:56:09;;;;;;;34.33;12.90;;;;;;;11.77;100.00;98750.59;6292040;22;20003;-95
2023/11/13 02:58:57;;;;;;;31.88;12.07;;;;;;;10.72;100.00;98602.16;6289706;22;20046;-95
2023/11/13 03:01:31;;;;;;;117.55;15.25;;;;;;;10.73;100.00;98618.97;6290166;22;20019;-95
2023/11/13 03:04:26;;;;;;;28.00;13.25;;;;;;;10.71;100.00;98613.69;6291427;22;20019;-92
2023/11/13 03:07:05;;;;;;;34.90;13.65;;;;;;;11.42;100.00;98733.97;6290891;22;20212;-96
2023/11/13 03:10:12;;;;;;;57.17;12.95;;;;;;;10.31;100.00;98585.63;6290015;22;20015;-94
2023/11/13 03:12:52;;;;;;;79.63;13.07;;;;;;;10.28;100.00;98626.44;6291174;22;20041;-94
2023/11/13 03:15:37;;;;;;;26.55;11.55;;;;;;;10.71;100.00;98695.28;6290063;22;20068;-95
2023/11/13 03:18:21;;;;;;;28.75;11.60;;;;;;;10.45;100.00;98631.31;6290730;22;20015;-95
2023/11/13 03:21:00;;;;;;;75.68;15.27;;;;;;;10.46;100.00;98629.50;6291280;22;20025;-94
2023/11/13 03:23:42;;;;;;;30.38;10.85;;;;;;;10.57;100.00;98616.78;6290412;22;20033;-96
2023/11/13 03:26:20;;;;;;;43.15;11.13;;;;;;;10.62;100.00;98608.66;6291893;22;20012;-93
2023/11/13 03:29:02;;;;;;;38.63;11.68;;;;;;;11.18;100.00;98707.16;6289929;22;20016;-94
2023/11/13 03:31:41;;;;;;;52.67;13.43;;;;;;;11.10;100.00;98710.06;6291548;22;20268;-94
2023/11/13 03:34:16;;;;;;;29.17;12.13;;;;;;;10.57;100.00;98613.25;6291484;22;20102;-94
2023/11/13 03:36:53;;;;;;;27.38;11.05;;;;;;;10.66;100.00;98632.44;6289280;22;20026;-95
2023/11/13 03:39:30;;;;;;;26.88;11.52;;;;;;;11.16;100.00;98730.28;6290356;22;20525;-93
2023/11/13 03:42:10;;;;;;;36.97;13.32;;;;;;;10.67;100.00;98638.66;6291908;22;20090;-94
2023/11/13 03:45:00;;;;;;;30.05;10.82;;;;;;;11.39;100.00;98771.34;6290976;22;20026;-94
2023/11/13 03:47:42;;;;;;;34.55;11.38;;;;;;;10.65;100.00;98667.94;6290856;22;20027;-94
2023/11/13 03:50:21;;;;;;;32.88;12.85;;;;;;;10.57;100.00;98653.13;6291025;22;20065;-93
2023/11/13 03:52:56;;;;;;;36.40;12.27;;;;;;;10.45;100.00;98636.63;6289424;22;20488;-93
2023/11/13 03:55:31;;;;;;;27.65;10.57;;;;;;;11.25;100.00;98779.72;6291568;22;20015;-94
2023/11/13 03:58:17;;;;;;;28.52;11.38;;;;;;;10.43;100.00;98638.47;6289804;22;20506;-94
2023/11/13 04:01:09;;;;;;;34.28;11.95;;;;;;;10.79;100.00;98664.88;6288773;22;20110;-94
2023/11/13 04:03:49;;;;;;;;;;;;;;;11.62;100.00;98794.56;6290397;22;20041;-94
2023/11/13 04:06:44;;;;;;;26.83;10.85;;;;;;;10.68;100.00;98638.59;6284152;22;19922;-93
2023/11/13 04:09:24;;;;;;;29.65;12.02;;;;;;;10.83;100.00;98647.03;6288199;22;20012;-95
2023/11/13 04:12:09;;;;;;;34.78;11.68;;;;;;;11.27;100.00;98735.28;6288513;22;20015;-94
2023/11/13 04:15:04;;;;;;;28.40;9.90;;;;;;;10.82;100.00;98651.50;6289447;22;20298;-93
2023/11/13 04:17:38;;;;;;;32.88;12.63;;;;;;;11.57;100.00;98784.06;6289414;22;20064;-95
2023/11/13 04:23:30;;;;;;;28.10;11.48;;;;;;;10.78;100.00;98636.56;6285965;22;20011;-95
2023/11/13 04:26:32;;;;;;;33.55;12.05;;;;;;;10.75;100.00;98620.66;6290434;22;20046;-95
2023/11/13 04:29:14;;;;;;;30.15;12.18;;;;;;;11.53;100.00;98755.78;6287719;22;20015;-93
2023/11/13 04:32:09;;;;;;;30.70;12.25;;;;;;;11.50;100.00;98727.47;6288329;22;20051;-93
2023/11/13 04:34:56;;;;;;;31.80;11.98;;;;;;;11.07;100.00;98658.72;6271338;22;20011;-95
2023/11/13 04:37:44;;;;;;;29.70;12.20;;;;;;;10.78;100.00;98601.06;6289952;22;20019;-94
2023/11/13 04:40:27;;;;;;;25.63;10.20;;;;;;;10.66;100.00;98603.19;6287042;22;20022;-94
2023/11/13 04:46:31;;;;;;;31.38;12.82;;;;;;;10.76;100.00;98638.38;6289398;22;20019;-95
2023/11/13 04:49:06;;;;;;;33.13;10.43;;;;;;;11.24;100.00;98695.47;6285140;22;20019;-95
2023/11/13 04:51:44;;;;;;;;;;;;;;;11.73;100.00;98784.47;6287535;22;20019;-95
2023/11/13 04:54:33;;;;;;;25.60;10.45;;;;;;;11.18;100.00;98708.97;6289543;22;19922;-94
2023/11/13 04:57:19;;;;;;;31.08;11.32;;;;;;;10.84;100.00;98649.66;6288833;22;20015;-94
2023/11/13 05:03:26;;;;;;;32.78;11.70;;;;;;;11.06;100.00;98752.75;6168183;23;20346;-92
2023/11/13 05:09:43;;;;;;;27.33;11.70;;;;;;;10.72;100.00;98710.34;6192357;23;20024;-95
2023/11/13 05:12:35;;;;;;;32.92;11.93;;;;;;;10.90;100.00;98752.34;6165309;23;20017;-94
2023/11/13 05:15:46;;;;;;;29.60;12.38;;;;;;;10.71;100.00;98701.44;6165542;23;20018;-94
2023/11/13 05:18:19;;;;;;;29.90;12.40;;;;;;;10.46;100.00;98718.09;6164488;23;20451;-94
2023/11/13 05:20:54;;;;;;;26.55;11.27;;;;;;;10.67;100.00;98729.09;6167737;23;20431;-93
2023/11/13 05:23:49;;;;;;;26.20;11.00;;;;;;;10.61;100.00;98705.31;6182249;23;20087;-95
2023/11/13 05:26:30;;;;;;;30.17;11.38;;;;;;;10.76;100.00;98717.31;6165209;23;20436;-95
2023/11/13 05:29:14;;;;;;;28.30;12.27;;;;;;;11.17;100.00;98763.09;6168206;23;20017;-95
2023/11/13 05:31:46;;;;;;;29.80;12.30;;;;;;;10.73;100.00;98693.44;6167228;23;20013;-95
2023/11/13 05:34:34;;;;;;;36.05;13.85;;;;;;;10.84;100.00;98707.28;6191818;23;20025;-94
2023/11/13 05:37:12;;;;;;;34.38;12.98;;;;;;;10.86;100.00;98709.03;6167451;23;20083;-94
2023/11/13 05:39:59;;;;;;;32.40;12.05;;;;;;;10.88;100.00;98717.78;6290239;22;20012;-94
2023/11/13 05:42:31;;;;;;;29.08;11.60;;;;;;;10.82;100.00;98704.69;6290579;22;20105;-93
2023/11/13 05:45:30;;;;;;;;;;;;;;;;;;;;;
2023/11/13 05:48:21;;;;;;;29.98;12.32;;;;;;;11.06;100.00;98747.44;6289699;22;20020;-95
2023/11/13 05:50:59;;;;;;;;;;;;;;;11.66;100.00;98837.06;6288301;22;20019;-95
2023/11/13 05:53:40;;;;;;;27.10;11.13;;;;;;;11.60;100.00;98818.63;6286737;22;19926;-96
2023/11/13 05:56:19;;;;;;;29.73;11.45;;;;;;;10.65;100.00;98667.09;6289871;22;19999;-95
2023/11/13 05:59:58;;;;;;;33.92;12.40;;;;;;;10.63;100.00;98658.28;6314463;22;20505;-96
2023/11/13 06:02:42;;;;;;;64.07;12.68;;;;;;;10.77;100.00;98687.97;6295711;22;20022;-95
2023/11/13 06:05:18;;;;;;;33.15;11.45;;;;;;;11.21;100.00;98778.97;6319054;22;20019;-95
2023/11/13 06:08:26;;;;;;;39.85;12.43;;;;;;;10.79;100.00;98691.47;6292336;22;20012;-94
2023/11/13 06:10:58;;;;;;;44.08;12.55;;;;;;;10.79;100.00;98703.91;6292620;22;20023;-94
2023/11/13 06:13:38;;;;;;;47.17;12.60;;;;;;;11.70;100.00;98862.69;6291906;22;20012;-94
2023/11/13 06:23:02;;;;;;;24.48;10.10;;;;;;;10.86;100.00;98734.72;6170907;23;20013;-95
2023/11/13 06:25:47;;;;;;;30.55;11.43;;;;;;;10.98;100.00;98762.78;6197159;23;20129;-94
2023/11/13 06:28:48;;;;;;;30.75;11.38;;;;;;;10.77;100.00;98725.22;6174758;23;20041;-94
2023/11/13 06:31:23;;;;;;;25.23;10.32;;;;;;;10.80;100.00;98743.78;6140908;23;20435;-94
2023/11/13 06:41:40;;;;;;;29.17;12.55;;;;;;;10.86;100.00;98714.34;6000074;23;20016;-94
2023/11/13 06:47:58;;;;;;;27.15;10.95;;;;;;;11.94;100.00;98878.00;6108104;23;20010;-94
2023/11/13 06:51:07;;;;;;;25.88;10.63;;;;;;;11.83;100.00;98881.84;6108414;23;20028;-95
2023/11/13 06:53:54;;;;;;;25.42;10.93;;;;;;;10.84;100.00;98748.09;6108453;23;20077;-95
2023/11/13 06:57:07;;;;;;;32.13;12.63;;;;;;;11.06;100.00;98737.69;6085296;23;20054;-95
2023/11/13 07:00:14;;;;;;;29.27;11.90;;;;;;;11.07;100.00;98749.19;6067336;23;20441;-96
2023/11/13 07:03:13;;;;;;;27.45;12.13;;;;;;;11.23;100.00;98781.56;6103783;23;20148;-95
2023/11/13 07:05:49;;;;;;;26.70;12.48;;;;;;;11.87;100.00;98896.81;6112897;23;20034;-95
2023/11/13 07:08:37;;;;;;;28.80;13.00;;;;;;;11.07;100.00;98738.56;6113972;23;20017;-95
2023/11/13 07:11:42;;;;;;;35.53;15.93;;;;;;;11.18;100.00;98767.53;6106769;23;20002;-96
2023/11/13 07:18:14;;;;;;;;;;;;;;;;;;;;;
2023/11/13 07:21:16;;;;;;;60.05;21.17;;;;;;;11.34;100.00;98767.91;6055140;23;20511;-95
2023/11/13 07:28:19;;;;;;;28.42;13.57;;;;;;;12.22;100.00;98902.00;6080510;23;20070;-95
2023/11/13 07:38:10;;;;;;;;;;;;;;;;;;;;;
2023/11/13 07:47:27;;;;;;;26.55;13.20;;;;;;;11.57;100.00;98809.84;6112313;23;20032;-95
2023/11/13 07:50:29;;;;;;;24.08;10.32;;;;;;;11.55;100.00;98817.88;6114951;23;20009;-94
2023/11/13 07:53:25;;;;;;;22.73;9.70;;;;;;;11.40;100.00;98797.03;6055947;23;20018;-96
2023/11/13 07:56:47;;;;;;;21.38;10.27;;;;;;;12.00;100.00;98921.34;6079252;23;20074;-95
2023/11/13 08:06:44;;;;;;;18.42;8.95;;;;;;;12.54;100.00;98967.66;5998208;23;20012;-96
2023/11/13 08:09:32;;;;;;;;;;;;;;;;;;;;;
2023/11/13 08:12:13;;;;;;;23.65;10.55;;;;;;;11.87;100.00;98866.63;5999968;23;20052;-94
2023/11/13 08:14:41;;;;;;;24.60;11.13;;;;;;;11.70;100.00;98843.16;6021749;23;20020;-96
2023/11/13 08:17:22;;;;;;;22.85;12.32;;;;;;;12.46;100.00;98964.38;6019276;23;20023;-94
2023/11/13 08:19:51;;;;;;;27.10;13.73;;;;;;;12.00;100.00;98876.03;6108727;23;20022;-95
2023/11/13 08:22:30;;;;;;;25.20;12.88;;;;;;;11.86;100.00;98835.56;6105773;23;20030;-93
2023/11/13 08:25:04;;;;;;;20.23;11.13;;;;;;;11.85;100.00;98829.38;6106106;23;20033;-96
2023/11/13 08:27:40;;;;;;;23.98;12.30;;;;;;;11.90;100.00;98818.59;6112839;23;20441;-94
2023/11/13 08:30:22;;;;;;;26.48;10.48;;;;;;;11.91;100.00;98817.69;6222726;23;20012;-94
2023/11/13 08:33:08;;;;;;;23.33;11.18;;;;;;;11.95;100.00;98821.13;6222521;23;20034;-94
2023/11/13 08:38:31;;;;;;;17.75;9.70;;;;;;;11.97;100.00;98892.13;6200722;22;20453;-94
2023/11/13 08:41:18;;;;;;;15.00;7.70;;;;;;;11.72;100.00;98838.66;6289584;22;20022;-93
2023/11/13 08:50:19;;;;;;;10.35;5.72;;;;;;;13.11;100.00;99001.34;6290259;22;20021;-95
2023/11/13 08:52:53;;;;;;;13.75;5.97;;;;;;;12.21;100.00;98857.59;6287701;22;20124;-95
2023/11/13 08:55:26;;;;;;;16.83;8.52;;;;;;;13.12;100.00;98967.53;6293289;22;20015;-95
2023/11/13 08:58:04;;;;;;;18.45;10.63;;;;;;;13.08;100.00;98934.72;6293917;22;20021;-95
2023/11/13 09:00:54;;;;;;;23.08;12.60;;;;;;;12.72;100.00;98856.78;6290856;22;20061;-95
2023/11/13 09:03:29;;;;;;;15.85;8.20;;;;;;;13.58;100.00;99006.03;6293394;22;20416;-96
2023/11/13 09:05:58;;;;;;;18.63;10.80;;;;;;;12.72;100.00;98854.13;6292089;22;20026;-94
2023/11/13 09:08:45;;;;;;;;;;;;;;;;;;;;;
2023/11/13 09:11:17;;;;;;;19.63;10.45;;;;;;;12.84;100.00;98836.84;6292218;22;20106;-95
2023/11/13 09:13:54;;;;;;;20.63;11.55;;;;;;;13.72;100.00;98966.31;6292387;22;20018;-95
2023/11/13 09:16:41;;;;;;;16.77;10.25;;;;;;;13.17;100.00;98863.25;6291737;22;20015;-95
2023/11/13 09:19:08;;;;;;;13.48;8.13;;;;;;;13.18;100.00;98836.47;6287597;22;20383;-95
2023/11/13 09:21:35;;;;;;;15.30;7.78;;;;;;;13.94;100.00;98971.75;6292999;22;20049;-96
2023/11/13 09:24:09;;;;;;;17.00;9.77;;;;;;;13.05;100.00;98827.16;6294367;22;20026;-96
2023/11/13 09:26:44;;;;;;;15.80;8.63;;;;;;;13.21;100.00;98864.88;6293862;22;20015;-96
2023/11/13 09:29:31;;;;;;;19.67;8.52;;;;;;;13.11;100.00;98864.31;6293018;22;20019;-96
2023/11/13 09:32:09;;;;;;;16.63;9.48;;;;;;;12.62;100.00;98877.59;6280347;22;20023;-95
2023/11/13 09:34:42;;;;;;;12.18;7.95;;;;;;;13.64;100.00;99032.53;6292080;22;20015;-95
2023/11/13 09:37:15;;;;;;;11.57;7.13;;;;;;;13.54;100.00;99029.31;6291910;22;20498;-94
2023/11/13 09:39:49;;;;;;;14.75;6.72;;;;;;;12.93;100.00;98895.22;6293057;22;20018;-94
2023/11/13 09:42:18;;;;;;;11.23;5.72;;;;;;;13.14;100.00;98925.63;6293466;22;20387;-96
2023/11/13 09:45:05;;;;;;;12.52;6.03;;;;;;;12.99;100.00;98873.66;6294164;22;20023;-96
2023/11/13 09:47:59;;;;;;;15.25;8.88;;;;;;;13.03;100.00;98851.25;6292648;22;20085;-95
2023/11/13 09:50:33;;;;;;;13.10;7.20;;;;;;;12.98;100.00;98839.00;6292111;22;20434;-96
2023/11/13 09:53:15;;;;;;;9.63;6.90;;;;;;;13.48;100.00;98879.03;6291831;22;20079;-95
2023/11/13 09:55:50;;;;;;;18.67;8.13;;;;;;;14.29;100.00;99016.78;6292395;22;20021;-95
2023/11/13 09:58:20;;;;;;;10.40;6.55;;;;;;;13.55;100.00;98883.22;6318193;22;20127;-94
2023/11/13 10:00:50;;;;;;;14.10;7.10;;;;;;;13.68;100.00;98894.31;6294133;22;20037;-95
2023/11/13 10:03:20;;;;;;;11.30;6.65;;;;;;;13.54;100.00;98866.31;6294629;22;20027;-94
2023/11/13 10:05:46;;;;;;;;;;;;;;;14.55;100.00;99023.84;6295237;22;20015;-95
2023/11/13 10:08:22;;;;;;;12.05;6.53;;;;;;;13.67;100.00;98888.13;6295897;22;19915;-95
2023/11/13 10:10:49;;;;;;;15.20;6.63;;;;;;;13.60;100.00;98901.75;6293515;22;20066;-94
2023/11/13 10:13:23;;;;;;;16.13;7.75;;;;;;;13.46;100.00;98888.91;6295562;22;20023;-95
2023/11/13 10:16:20;;;;;;;15.38;8.52;;;;;;;13.98;100.00;98975.16;6296539;22;20015;-94
2023/11/13 10:18:49;;;;;;;17.08;7.35;;;;;;;13.31;100.00;98895.69;6293680;22;20039;-95
2023/11/13 10:21:32;;;;;;;13.05;7.97;;;;;;;13.21;100.00;98883.56;6294381;22;20049;-95
2023/11/13 10:24:23;;;;;;;12.30;6.68;;;;;;;14.29;100.00;99035.50;6295418;22;20023;-96
2023/11/13 10:27:06;;;;;;;9.48;4.10;;;;;;;13.58;100.00;98877.78;6294040;22;20345;-95
2023/11/13 10:29:43;;;;;;;13.50;5.95;;;;;;;13.56;100.00;98864.47;6295078;22;20044;-94
2023/11/13 10:32:16;;;;;;;14.43;7.60;;;;;;;14.31;100.00;99006.91;6319755;22;20043;-95
2023/11/13 10:34:49;;;;;;;13.68;7.05;;;;;;;13.56;100.00;98890.31;6293871;22;20019;-94
2023/11/13 10:37:26;;;;;;;12.40;4.32;;;;;;;14.21;100.00;98978.78;6295495;22;20332;-96
2023/11/13 10:39:59;;;;;;;8.27;4.93;;;;;;;13.71;100.00;98870.16;6294941;22;20023;-95
2023/11/13 10:42:27;;;;;;;12.57;4.88;;;;;;;14.16;100.00;98971.81;6319279;22;20019;-94
2023/11/13 10:44:59;;;;;;;12.13;5.00;;;;;;;14.39;100.00;98984.25;6292146;22;20421;-94
2023/11/13 10:47:35;;;;;;;12.45;4.18;;;;;;;13.81;100.00;98898.28;6294186;22;20400;-94
2023/11/13 10:50:15;;;;;;;9.13;3.97;;;;;;;14.21;100.00;98960.91;6293108;22;20441;-95
2023/11/13 10:52:43;;;;;;;9.82;4.95;;;;;;;13.67;100.00;98877.44;6292872;22;20020;-95
2023/11/13 10:55:10;;;;;;;15.27;5.15;;;;;;;13.66;100.00;98861.44;6293355;22;20075;-95
2023/11/13 10:57:47;;;;;;;7.07;4.63;;;;;;;13.76;100.00;98873.53;6292494;22;20011;-96
2023/11/13 11:00:19;;;;;;;8.05;3.55;;;;;;;13.94;100.00;98887.97;6292879;22;20027;-95
2023/11/13 11:03:07;;;;;;;6.82;3.38;;;;;;;14.40;100.00;98942.34;6319422;22;20035;-94
2023/11/13 11:05:36;;;;;;;8.55;3.65;;;;;;;14.16;100.00;98872.84;6291516;22;20019;-94
2023/11/13 11:08:03;;;;;;;7.32;3.67;;;;;;;14.45;100.00;98896.69;6294181;22;20016;-95
2023/11/13 11:10:36;;;;;;;7.22;3.83;;;;;;;14.38;100.00;98843.41;6320535;22;20015;-95
2023/11/13 11:13:08;;;;;;;11.73;4.45;;;;;;;15.39;100.00;98980.19;6295407;22;20011;-94
2023/11/13 11:16:13;;;;;;;6.75;4.03;;;;;;;15.01;100.00;98885.44;6295383;22;20488;-95
2023/11/13 11:18:59;;;;;;;11.02;5.20;;;;;;;15.23;100.00;98890.72;6273924;22;20022;-95
2023/11/13 11:21:46;;;;;;;9.18;3.58;;;;;;;15.35;100.00;98887.50;6293265;22;20015;-94
2023/11/13 11:24:38;;;;;;;8.80;3.53;;;;;;;15.08;100.00;98838.69;6291349;22;20041;-94
2023/11/13 11:27:07;;;;;;;8.65;4.75;;;;;;;14.79;100.00;98845.31;6290792;22;20015;-96
2023/11/13 11:29:41;;;;;;;8.60;4.00;;;;;;;15.15;100.00;98895.53;6289505;22;20016;-95
2023/11/13 11:32:21;;;;;;;12.68;4.63;;;;;;;15.00;100.00;98851.53;6290271;22;20046;-95
2023/11/13 11:35:04;;;;;;;9.20;4.28;;;;;;;15.19;100.00;98883.75;6290666;22;20026;-94
2023/11/13 11:37:34;;;;;;;10.35;4.63;;;;;;;15.09;100.00;98853.81;6317011;22;20023;-94
2023/11/13 11:40:06;;;;;;;10.63;5.47;;;;;;;15.94;100.00;98998.38;6291489;22;20022;-95
2023/11/13 11:42:32;;;;;;;14.90;6.38;;;;;;;14.79;100.00;98839.97;6291792;22;20078;-96
2023/11/13 11:45:06;;;;;;;12.27;4.68;;;;;;;14.79;100.00;98843.50;6287852;22;20110;-95
2023/11/13 11:47:56;;;;;;;13.68;5.30;;;;;;;14.77;100.00;98836.50;6289902;22;20022;-95
2023/11/13 11:50:27;;;;;;;6.75;4.53;;;;;;;15.44;100.00;98945.16;6291346;22;20015;-95
2023/11/13 11:52:55;;;;;;;11.63;4.18;;;;;;;15.42;100.00;98949.72;6290685;22;20027;-95
2023/11/13 11:55:29;;;;;;;10.38;4.50;;;;;;;14.67;100.00;98827.97;6290453;22;20074;-95
2023/11/13 11:57:58;;;;;;;12.77;5.25;;;;;;;14.68;100.00;98851.13;6288904;22;20019;-95
2023/11/13 12:00:26;;;;;;;6.20;4.00;;;;;;;14.64;100.00;98841.50;6290214;22;20106;-94
2023/11/13 12:02:56;;;;;;;10.40;3.38;;;;;;;15.52;100.00;98993.91;6291819;22;20086;-94
2023/11/13 12:05:27;;;;;;;13.40;3.97;;;;;;;14.88;100.00;98890.44;6291448;22;20015;-94
2023/11/13 12:07:55;;;;;;;6.55;3.40;;;;;;;14.65;100.00;98834.31;6293143;22;20011;-95
2023/11/13 12:10:22;;;;;;;7.90;4.20;;;;;;;15.35;100.00;98940.19;6295797;22;20019;-95
2023/11/13 12:12:53;;;;;;;7.18;3.28;;;;;;;14.76;100.00;98840.09;6294318;22;20019;-96
2023/11/13 12:15:26;;;;;;;13.25;5.25;;;;;;;14.71;100.00;98823.38;6295900;22;20018;-96
2023/11/13 12:17:57;;;;;;;14.85;8.02;;;;;;;14.81;100.00;98807.75;6294219;22;20087;-95
2023/11/13 12:20:31;;;;;;;16.23;8.23;;;;;;;14.75;100.00;98788.38;6294535;22;20012;-96
2023/11/13 12:23:00;;;;;;;17.15;8.98;;;;;;;14.90;100.00;98812.72;6294567;22;20019;-95
2023/11/13 12:25:31;;;;;;;15.77;9.30;;;;;;;14.89;100.00;98790.41;6293663;22;20020;-95
2023/11/13 12:28:05;;;;;;;20.85;11.32;;;;;;;15.46;100.00;98864.69;6294487;22;20019;-95
2023/11/13 12:30:38;;;;;;;20.73;10.23;;;;;;;15.08;100.00;98776.22;6294537;22;20011;-95
2023/11/13 12:33:09;;;;;;;16.55;9.45;;;;;;;15.12;100.00;98776.00;6294705;22;20017;-96
2023/11/13 12:35:43;;;;;;;19.25;11.35;;;;;;;16.15;100.00;98936.59;6293243;22;20015;-95
2023/11/13 12:38:16;;;;;;;15.20;9.93;;;;;;;15.33;100.00;98792.03;6292750;22;20413;-94
2023/11/13 12:40:46;;;;;;;21.40;12.45;;;;;;;15.40;100.00;98796.19;6292126;22;20011;-96
2023/11/13 12:43:16;;;;;;;26.27;16.02;;;;;;;16.03;100.00;98887.09;6292510;22;20040;-96
2023/11/13 12:45:48;;;;;;;24.80;13.02;;;;;;;15.39;100.00;98771.16;6293835;22;20389;-95
2023/11/13 12:48:15;;;;;;;;;;;;;;;16.32;100.00;98914.34;6294601;22;20098;-95
2023/11/13 12:51:05;;;;;;;20.00;11.35;;;;;;;16.36;100.00;98905.19;6292526;22;19939;-95
2023/11/13 12:53:34;;;;;;;22.45;13.88;;;;;;;15.58;100.00;98773.00;6294216;22;20025;-95
2023/11/13 12:56:34;;;;;;;24.15;12.13;;;;;;;16.46;100.00;98917.25;6296122;22;20023;-95
2023/11/13 12:59:07;;;;;;;20.20;12.30;;;;;;;15.67;100.00;98774.38;6277298;22;20444;-95
2023/11/13 13:01:45;;;;;;;19.17;11.77;;;;;;;16.28;100.00;98877.88;6295112;22;20063;-95
2023/11/13 13:07:17;;;;;;;18.17;10.63;;;;;;;16.38;100.00;98908.69;6271146;22;20023;-96
2023/11/13 13:10:27;;;;;;;12.55;6.93;;;;;;;16.41;100.00;98908.53;6295633;22;20015;-95
2023/11/13 13:12:59;;;;;;;18.33;7.35;;;;;;;15.39;100.00;98759.59;6294467;22;20010;-93
2023/11/13 13:15:27;;;;;;;11.63;6.35;;;;;;;15.18;100.00;98750.75;6296198;22;20068;-95
2023/11/13 13:17:59;;;;;;;15.43;6.65;;;;;;;15.23;100.00;98769.31;6297242;22;20015;-95
2023/11/13 13:20:33;;;;;;;11.85;6.80;;;;;;;15.27;100.00;98758.38;6297612;22;20509;-96
2023/11/13 13:23:14;;;;;;;10.20;5.63;;;;;;;15.35;100.00;98760.66;6320578;22;20015;-95
2023/11/13 13:25:44;;;;;;;11.90;5.78;;;;;;;15.43;100.00;98796.03;6293323;22;20019;-96
2023/11/13 13:28:15;;;;;;;11.95;7.47;;;;;;;15.73;100.00;98849.19;6294357;22;20016;-95
2023/11/13 13:30:49;;;;;;;12.93;6.57;;;;;;;15.33;100.00;98779.53;6295948;22;20011;-95
2023/11/13 13:33:18;;;;;;;12.23;7.30;;;;;;;15.17;100.00;98760.59;6295112;22;20042;-96
2023/11/13 13:35:44;;;;;;;13.85;7.97;;;;;;;15.57;100.00;98838.25;6297262;22;20019;-94
2023/11/13 13:38:12;;;;;;;11.65;6.28;;;;;;;15.06;100.00;98756.66;6295431;22;20023;-95
2023/11/13 13:40:47;;;;;;;15.70;5.93;;;;;;;15.34;100.00;98813.41;6296905;22;20028;-95
2023/11/13 13:43:19;;;;;;;9.73;5.28;;;;;;;15.25;100.00;98803.09;6296017;22;20412;-95
2023/11/13 13:45:53;;;;;;;19.92;6.00;;;;;;;15.57;100.00;98932.97;6295546;22;20330;-96
2023/11/13 13:48:24;;;;;;;15.20;5.88;;;;;;;15.67;100.00;98911.09;6281982;22;20015;-94
2023/11/13 13:50:52;;;;;;;14.70;6.88;;;;;;;14.95;100.00;98802.69;6296276;22;20023;-93
2023/11/13 13:53:24;;;;;;;14.32;6.55;;;;;;;15.62;100.00;98938.13;6322651;22;20045;-94
2023/11/13 13:56:01;;;;;;;14.23;6.10;;;;;;;15.48;100.00;98900.31;6295343;22;20026;-95
2023/11/13 13:58:34;;;;;;;15.50;5.63;;;;;;;15.54;100.00;98898.22;6294837;22;20030;-96
2023/11/13 14:01:05;;;;;;;12.85;5.68;;;;;;;14.68;100.00;98775.28;6295632;22;20485;-95
2023/11/13 14:03:31;;;;;;;8.98;4.30;;;;;;;14.76;100.00;98797.25;6293597;22;20030;-95
2023/11/13 14:06:15;;;;;;;12.52;4.53;;;;;;;15.52;100.00;98937.63;6299364;22;19999;-95